sensor_id;sensor_type;location;lat;lon;timestamp;pressure;altitude;pressure_sealevel;temperature;humidity
46942;BME280;32676;52.630;4.896;2023-12-04T00:00:28;99831.47;;;1.60;85.10
46942;BME280;32676;52.630;4.896;2023-12-04T00:02:56;99842.66;;;1.62;84.73
46942;BME280;32676;52.630;4.896;2023-12-04T00:05:22;99815.31;;;1.41;84.91
46942;BME280;32676;52.630;4.896;2023-12-04T00:07:49;99841.00;;;1.58;84.81
46942;BME280;32676;52.630;4.896;2023-12-04T00:10:15;99856.47;;;1.64;84.90
46942;BME280;32676;52.630;4.896;2023-12-04T00:12:42;99843.56;;;1.59;84.76
46942;BME280;32676;52.630;4.896;2023-12-04T00:15:09;99828.97;;;1.53;84.67
46942;BME280;32676;52.630;4.896;2023-12-04T00:17:36;99834.06;;;1.60;84.75
46942;BME280;32676;52.630;4.896;2023-12-04T00:20:07;99800.59;;;1.46;84.71
46942;BME280;32676;52.630;4.896;2023-12-04T00:22:34;99798.06;;;1.38;84.53
46942;BME280;32676;52.630;4.896;2023-12-04T00:25:01;99809.97;;;1.54;84.64
46942;BME280;32676;52.630;4.896;2023-12-04T00:27:28;99832.38;;;1.59;84.61
46942;BME280;32676;52.630;4.896;2023-12-04T00:29:54;99798.94;;;1.39;84.73
46942;BME280;32676;52.630;4.896;2023-12-04T00:32:21;99830.66;;;1.54;84.86
46942;BME280;32676;52.630;4.896;2023-12-04T00:34:48;99822.13;;;1.49;84.73
46942;BME280;32676;52.630;4.896;2023-12-04T00:37:16;99820.47;;;1.44;84.96
46942;BME280;32676;52.630;4.896;2023-12-04T00:39:42;99859.94;;;1.63;84.83
46942;BME280;32676;52.630;4.896;2023-12-04T00:42:08;99865.09;;;1.66;84.87
46942;BME280;32676;52.630;4.896;2023-12-04T00:44:35;99863.34;;;1.65;84.78
46942;BME280;32676;52.630;4.896;2023-12-04T00:47:03;99868.50;;;1.68;84.81
46942;BME280;32676;52.630;4.896;2023-12-04T00:49:29;99841.94;;;1.49;84.75
46942;BME280;32676;52.630;4.896;2023-12-04T00:51:56;99836.03;;;1.39;84.62
46942;BME280;32676;52.630;4.896;2023-12-04T00:54:24;99853.13;;;1.54;84.68
46942;BME280;32676;52.630;4.896;2023-12-04T00:56:50;99887.47;;;1.70;84.56
46942;BME280;32676;52.630;4.896;2023-12-04T00:59:17;99860.88;;;1.57;84.49
46942;BME280;32676;52.630;4.896;2023-12-04T01:01:43;99873.75;;;1.62;84.51
46942;BME280;32676;52.630;4.896;2023-12-04T01:04:10;99877.22;;;1.61;84.43
46942;BME280;32676;52.630;4.896;2023-12-04T01:06:36;99897.81;;;1.73;84.38
46942;BME280;32676;52.630;4.896;2023-12-04T01:09:03;99904.69;;;1.74;84.16
46942;BME280;32676;52.630;4.896;2023-12-04T01:11:30;99885.81;;;1.63;84.12
46942;BME280;32676;52.630;4.896;2023-12-04T01:13:57;99900.41;;;1.71;84.09
46942;BME280;32676;52.630;4.896;2023-12-04T01:16:23;99898.66;;;1.73;83.97
46942;BME280;32676;52.630;4.896;2023-12-04T01:18:50;99884.00;;;1.71;83.89
46942;BME280;32676;52.630;4.896;2023-12-04T01:21:16;99879.72;;;1.68;84.07
46942;BME280;32676;52.630;4.896;2023-12-04T01:23:44;99867.78;;;1.57;83.88
46942;BME280;32676;52.630;4.896;2023-12-04T01:26:10;99891.81;;;1.66;83.87
46942;BME280;32676;52.630;4.896;2023-12-04T01:28:38;99902.09;;;1.74;84.14
46942;BME280;32676;52.630;4.896;2023-12-04T01:31:06;99861.00;;;1.45;84.13
46942;BME280;32676;52.630;4.896;2023-12-04T01:33:32;99910.69;;;1.76;84.13
46942;BME280;32676;52.630;4.896;2023-12-04T01:35:59;99896.06;;;1.72;84.10
46942;BME280;32676;52.630;4.896;2023-12-04T01:38:25;99878.91;;;1.62;84.15
46942;BME280;32676;52.630;4.896;2023-12-04T01:40:51;99908.09;;;1.76;84.15
46942;BME280;32676;52.630;4.896;2023-12-04T01:43:18;99915.03;;;1.77;84.18
46942;BME280;32676;52.630;4.896;2023-12-04T01:45:46;99915.03;;;1.77;84.33
46942;BME280;32676;52.630;4.896;2023-12-04T01:48:13;99923.63;;;1.79;84.27
46942;BME280;32676;52.630;4.896;2023-12-04T01:50:40;99937.41;;;1.81;84.43
46942;BME280;32676;52.630;4.896;2023-12-04T01:53:08;99946.03;;;1.83;84.35
46942;BME280;32676;52.630;4.896;2023-12-04T01:55:36;99956.34;;;1.86;84.28
46942;BME280;32676;52.630;4.896;2023-12-04T01:58:04;99969.28;;;1.89;84.25
46942;BME280;32676;52.630;4.896;2023-12-04T02:00:31;99971.84;;;1.91;84.18
46942;BME280;32676;52.630;4.896;2023-12-04T02:03:00;99968.44;;;1.87;84.01
46942;BME280;32676;52.630;4.896;2023-12-04T02:05:27;99966.69;;;1.89;84.30
46942;BME280;32676;52.630;4.896;2023-12-04T02:07:54;99944.31;;;1.82;84.09
46942;BME280;32676;52.630;4.896;2023-12-04T02:10:21;99953.78;;;1.85;84.08
46942;BME280;32676;52.630;4.896;2023-12-04T02:12:48;99946.94;;;1.81;84.07
46942;BME280;32676;52.630;4.896;2023-12-04T02:15:15;99944.31;;;1.82;84.04
46942;BME280;32676;52.630;4.896;2023-12-04T02:17:42;99940.91;;;1.80;84.26
46942;BME280;32676;52.630;4.896;2023-12-04T02:20:12;99930.59;;;1.74;84.26
46942;BME280;32676;52.630;4.896;2023-12-04T02:22:39;99930.59;;;1.74;84.10
46942;BME280;32676;52.630;4.896;2023-12-04T02:25:08;99901.47;;;1.53;84.15
46942;BME280;32676;52.630;4.896;2023-12-04T02:27:38;99942.59;;;1.81;84.13
46942;BME280;32676;52.630;4.896;2023-12-04T02:30:10;99899.72;;;1.56;84.11
46942;BME280;32676;52.630;4.896;2023-12-04T02:32:44;99937.50;;;1.75;84.11
46942;BME280;32676;52.630;4.896;2023-12-04T02:35:12;99940.91;;;1.80;84.16
46942;BME280;32676;52.630;4.896;2023-12-04T02:37:41;99909.88;;;1.71;83.98
46942;BME280;32676;52.630;4.896;2023-12-04T02:40:10;99925.44;;;1.71;84.33
46942;BME280;32676;52.630;4.896;2023-12-04T02:42:38;99940.00;;;1.80;84.15
46942;BME280;32676;52.630;4.896;2023-12-04T02:45:05;99940.91;;;1.80;84.10
46942;BME280;32676;52.630;4.896;2023-12-04T02:47:32;99928.81;;;1.79;84.09
46942;BME280;32676;52.630;4.896;2023-12-04T02:49:58;99884.19;;;1.56;83.97
46942;BME280;32676;52.630;4.896;2023-12-04T02:52:25;99938.31;;;1.79;83.88
46942;BME280;32676;52.630;4.896;2023-12-04T02:54:51;99923.72;;;1.70;83.77
46942;BME280;32676;52.630;4.896;2023-12-04T02:57:19;99915.03;;;1.74;83.77
46942;BME280;32676;52.630;4.896;2023-12-04T02:59:47;99873.00;;;1.52;83.62
46942;BME280;32676;52.630;4.896;2023-12-04T03:02:13;99915.03;;;1.74;83.72
46942;BME280;32676;52.630;4.896;2023-12-04T03:04:40;99904.78;;;1.65;83.67
46942;BME280;32676;52.630;4.896;2023-12-04T03:07:07;99920.25;;;1.71;83.65
46942;BME280;32676;52.630;4.896;2023-12-04T03:09:33;99860.28;;;1.29;83.51
46942;BME280;32676;52.630;4.896;2023-12-04T03:11:59;99942.66;;;1.75;83.47
46942;BME280;32676;52.630;4.896;2023-12-04T03:14:27;99930.59;;;1.74;83.39
46942;BME280;32676;52.630;4.896;2023-12-04T03:16:54;99934.06;;;1.73;83.35
46942;BME280;32676;52.630;4.896;2023-12-04T03:19:20;99951.19;;;1.83;83.23
46942;BME280;32676;52.630;4.896;2023-12-04T03:21:46;99953.78;;;1.83;83.09
46942;BME280;32676;52.630;4.896;2023-12-04T03:24:13;99930.69;;;1.65;83.13
46942;BME280;32676;52.630;4.896;2023-12-04T03:26:40;99967.56;;;1.87;82.96
46942;BME280;32676;52.630;4.896;2023-12-04T03:29:06;99985.66;;;1.91;83.03
46942;BME280;32676;52.630;4.896;2023-12-04T03:31:34;99960.88;;;1.67;82.99
46942;BME280;32676;52.630;4.896;2023-12-04T03:34:01;100025.28;;;2.00;82.93
46942;BME280;32676;52.630;4.896;2023-12-04T03:36:28;100018.41;;;1.99;82.78
46942;BME280;32676;52.630;4.896;2023-12-04T03:38:54;99992.59;;;1.89;82.74
46942;BME280;32676;52.630;4.896;2023-12-04T03:41:21;99990.78;;;1.95;82.39
46942;BME280;32676;52.630;4.896;2023-12-04T03:43:48;99999.47;;;1.94;82.38
46942;BME280;32676;52.630;4.896;2023-12-04T03:46:14;99983.09;;;1.87;82.21
46942;BME280;32676;52.630;4.896;2023-12-04T03:48:42;99987.38;;;1.92;82.17
46942;BME280;32676;52.630;4.896;2023-12-04T03:51:09;100002.88;;;1.96;82.19
46942;BME280;32676;52.630;4.896;2023-12-04T03:53:35;99978.00;;;1.79;82.10
46942;BME280;32676;52.630;4.896;2023-12-04T03:56:02;99993.38;;;1.95;81.83
46942;BME280;32676;52.630;4.896;2023-12-04T03:58:28;99974.53;;;1.82;81.84
46942;BME280;32676;52.630;4.896;2023-12-04T04:00:55;99980.50;;;1.88;81.61
46942;BME280;32676;52.630;4.896;2023-12-04T04:03:23;99984.84;;;1.86;81.65
46942;BME280;32676;52.630;4.896;2023-12-04T04:05:50;99999.47;;;1.94;81.66
46942;BME280;32676;52.630;4.896;2023-12-04T04:08:17;99993.44;;;1.93;81.54
46942;BME280;32676;52.630;4.896;2023-12-04T04:10:43;99994.28;;;1.94;81.49
46942;BME280;32676;52.630;4.896;2023-12-04T04:13:10;99983.94;;;1.90;81.40
46942;BME280;32676;52.630;4.896;2023-12-04T04:15:37;99993.44;;;1.91;81.38
46942;BME280;32676;52.630;4.896;2023-12-04T04:18:03;100000.38;;;1.89;81.43
46942;BME280;32676;52.630;4.896;2023-12-04T04:20:30;100013.28;;;1.92;81.29
46942;BME280;32676;52.630;4.896;2023-12-04T04:22:58;100003.81;;;1.90;81.33
46942;BME280;32676;52.630;4.896;2023-12-04T04:25:24;100002.91;;;1.92;81.24
46942;BME280;32676;52.630;4.896;2023-12-04T04:27:51;100032.19;;;2.01;81.40
46942;BME280;32676;52.630;4.896;2023-12-04T04:30:17;100016.69;;;1.98;81.20
46942;BME280;32676;52.630;4.896;2023-12-04T04:32:44;100012.41;;;1.92;81.06
46942;BME280;32676;52.630;4.896;2023-12-04T04:35:10;100027.88;;;2.01;81.15
46942;BME280;32676;52.630;4.896;2023-12-04T04:37:37;100022.69;;;2.00;81.08
46942;BME280;32676;52.630;4.896;2023-12-04T04:40:06;100014.09;;;1.96;81.17
46942;BME280;32676;52.630;4.896;2023-12-04T04:42:32;100013.25;;;1.96;81.17
46942;BME280;32676;52.630;4.896;2023-12-04T04:44:59;100010.66;;;1.97;80.99
46942;BME280;32676;52.630;4.896;2023-12-04T04:47:25;100009.78;;;1.97;81.07
46942;BME280;32676;52.630;4.896;2023-12-04T04:49:52;100005.47;;;1.96;80.86
46942;BME280;32676;52.630;4.896;2023-12-04T04:52:18;99997.78;;;1.89;80.83
46942;BME280;32676;52.630;4.896;2023-12-04T04:54:45;99997.72;;;1.92;80.73
46942;BME280;32676;52.630;4.896;2023-12-04T04:57:12;99996.03;;;1.91;80.80
46942;BME280;32676;52.630;4.896;2023-12-04T04:59:39;99982.25;;;1.89;80.71
46942;BME280;32676;52.630;4.896;2023-12-04T05:02:05;99991.72;;;1.89;80.75
46942;BME280;32676;52.630;4.896;2023-12-04T05:04:32;99986.53;;;1.90;80.71
46942;BME280;32676;52.630;4.896;2023-12-04T05:06:58;99985.69;;;1.88;80.74
46942;BME280;32676;52.630;4.896;2023-12-04T05:09:25;99969.31;;;1.86;80.69
46942;BME280;32676;52.630;4.896;2023-12-04T05:11:51;99966.78;;;1.80;80.62
46942;BME280;32676;52.630;4.896;2023-12-04T05:14:19;99975.31;;;1.88;80.64
46942;BME280;32676;52.630;4.896;2023-12-04T05:16:45;99977.09;;;1.86;80.54
46942;BME280;32676;52.630;4.896;2023-12-04T05:19:12;99977.09;;;1.86;80.64
46942;BME280;32676;52.630;4.896;2023-12-04T05:21:38;99965.88;;;1.84;80.68
46942;BME280;32676;52.630;4.896;2023-12-04T05:24:05;99971.06;;;1.86;80.23
46942;BME280;32676;52.630;4.896;2023-12-04T05:26:31;99981.34;;;1.89;80.37
46942;BME280;32676;52.630;4.896;2023-12-04T05:28:58;99988.28;;;1.90;80.33
46942;BME280;32676;52.630;4.896;2023-12-04T05:31:26;99996.03;;;1.91;80.18
46942;BME280;32676;52.630;4.896;2023-12-04T05:33:52;99977.16;;;1.80;80.27
46942;BME280;32676;52.630;4.896;2023-12-04T05:36:19;100000.31;;;1.92;80.35
46942;BME280;32676;52.630;4.896;2023-12-04T05:38:45;99996.03;;;1.91;80.14
46942;BME280;32676;52.630;4.896;2023-12-04T05:41:12;99985.72;;;1.85;80.13
46942;BME280;32676;52.630;4.896;2023-12-04T05:43:38;99960.81;;;1.75;79.98
46942;BME280;32676;52.630;4.896;2023-12-04T05:46:05;99980.50;;;1.88;80.12
46942;BME280;32676;52.630;4.896;2023-12-04T05:48:33;99957.31;;;1.78;80.12
46942;BME280;32676;52.630;4.896;2023-12-04T05:50:59;99972.75;;;1.85;80.14
46942;BME280;32676;52.630;4.896;2023-12-04T05:53:26;99959.88;;;1.79;79.98
46942;BME280;32676;52.630;4.896;2023-12-04T05:55:54;99973.66;;;1.84;80.03
46942;BME280;32676;52.630;4.896;2023-12-04T05:58:20;99972.75;;;1.85;80.20
46942;BME280;32676;52.630;4.896;2023-12-04T06:00:47;99958.22;;;1.75;80.00
46942;BME280;32676;52.630;4.896;2023-12-04T06:03:13;99957.31;;;1.78;80.05
46942;BME280;32676;52.630;4.896;2023-12-04T06:05:41;99977.94;;;1.87;80.23
46942;BME280;32676;52.630;4.896;2023-12-04T06:08:07;99972.81;;;1.84;80.32
46942;BME280;32676;52.630;4.896;2023-12-04T06:10:34;99970.16;;;1.85;80.33
46942;BME280;32676;52.630;4.896;2023-12-04T06:13:00;99966.75;;;1.83;80.46
46942;BME280;32676;52.630;4.896;2023-12-04T06:15:27;99965.88;;;1.83;80.42
46942;BME280;32676;52.630;4.896;2023-12-04T06:17:53;99954.72;;;1.76;80.35
46942;BME280;32676;52.630;4.896;2023-12-04T06:20:20;99965.03;;;1.84;80.46
46942;BME280;32676;52.630;4.896;2023-12-04T06:22:48;99941.00;;;1.69;80.55
46942;BME280;32676;52.630;4.896;2023-12-04T06:25:16;99934.16;;;1.64;80.51
46942;BME280;32676;52.630;4.896;2023-12-04T06:27:43;99952.09;;;1.81;80.56
46942;BME280;32676;52.630;4.896;2023-12-04T06:30:11;99942.69;;;1.72;80.75
46942;BME280;32676;52.630;4.896;2023-12-04T06:32:38;99948.69;;;1.79;80.71
46942;BME280;32676;52.630;4.896;2023-12-04T06:35:05;99959.88;;;1.79;80.72
46942;BME280;32676;52.630;4.896;2023-12-04T06:37:32;99950.38;;;1.80;80.71
46942;BME280;32676;52.630;4.896;2023-12-04T06:40:00;99949.53;;;1.79;80.65
46942;BME280;32676;52.630;4.896;2023-12-04T06:42:28;99961.63;;;1.80;80.75
46942;BME280;32676;52.630;4.896;2023-12-04T06:44:55;99961.56;;;1.83;80.80
46942;BME280;32676;52.630;4.896;2023-12-04T06:47:22;99970.22;;;1.82;80.97
46942;BME280;32676;52.630;4.896;2023-12-04T06:49:49;99991.72;;;1.89;80.82
46942;BME280;32676;52.630;4.896;2023-12-04T06:52:15;99975.41;;;1.82;80.91
46942;BME280;32676;52.630;4.896;2023-12-04T06:54:42;99994.31;;;1.90;80.83
46942;BME280;32676;52.630;4.896;2023-12-04T06:57:10;99966.81;;;1.77;80.80
46942;BME280;32676;52.630;4.896;2023-12-04T06:59:36;100002.91;;;1.94;80.64
46942;BME280;32676;52.630;4.896;2023-12-04T07:02:03;100020.16;;;1.97;80.68
46942;BME280;32676;52.630;4.896;2023-12-04T07:04:30;100023.59;;;1.99;80.54
46942;BME280;32676;52.630;4.896;2023-12-04T07:06:57;100023.63;;;1.96;80.37
46942;BME280;32676;52.630;4.896;2023-12-04T07:09:30;100023.59;;;1.97;80.26
46942;BME280;32676;52.630;4.896;2023-12-04T07:11:56;100025.34;;;1.97;80.13
46942;BME280;32676;52.630;4.896;2023-12-04T07:14:24;100025.28;;;2.00;80.03
46942;BME280;32676;52.630;4.896;2023-12-04T07:16:51;100011.59;;;1.88;79.95
46942;BME280;32676;52.630;4.896;2023-12-04T07:19:18;100006.47;;;1.82;80.06
46942;BME280;32676;52.630;4.896;2023-12-04T07:21:47;100027.88;;;1.98;80.02
46942;BME280;32676;52.630;4.896;2023-12-04T07:24:14;100038.25;;;2.00;80.00
46942;BME280;32676;52.630;4.896;2023-12-04T07:26:41;100021.00;;;1.97;79.88
46942;BME280;32676;52.630;4.896;2023-12-04T07:29:08;99977.22;;;1.71;79.90
46942;BME280;32676;52.630;4.896;2023-12-04T07:31:35;100002.97;;;1.86;79.95
46942;BME280;32676;52.630;4.896;2023-12-04T07:34:02;100007.25;;;1.89;79.91
46942;BME280;32676;52.630;4.896;2023-12-04T07:36:29;99994.31;;;1.90;79.77
46942;BME280;32676;52.630;4.896;2023-12-04T07:38:55;99992.59;;;1.89;79.90
46942;BME280;32676;52.630;4.896;2023-12-04T07:41:22;99975.34;;;1.85;79.70
46942;BME280;32676;52.630;4.896;2023-12-04T07:43:49;99961.63;;;1.77;79.95
46942;BME280;32676;52.630;4.896;2023-12-04T07:46:16;99969.34;;;1.82;79.93
46942;BME280;32676;52.630;4.896;2023-12-04T07:48:44;99959.06;;;1.76;79.95
46942;BME280;32676;52.630;4.896;2023-12-04T07:51:11;99965.03;;;1.82;80.14
46942;BME280;32676;52.630;4.896;2023-12-04T07:53:37;99973.66;;;1.84;80.03
46942;BME280;32676;52.630;4.896;2023-12-04T07:56:05;99966.78;;;1.80;80.25
46942;BME280;32676;52.630;4.896;2023-12-04T07:58:32;99963.38;;;1.75;80.13
46942;BME280;32676;52.630;4.896;2023-12-04T08:00:59;99984.00;;;1.87;80.20
46942;BME280;32676;52.630;4.896;2023-12-04T08:03:25;99972.03;;;1.71;80.21
46942;BME280;32676;52.630;4.896;2023-12-04T08:05:53;100015.84;;;1.94;80.21
46942;BME280;32676;52.630;4.896;2023-12-04T08:08:19;100002.97;;;1.86;80.24
46942;BME280;32676;52.630;4.896;2023-12-04T08:10:47;100043.41;;;2.01;80.17
46942;BME280;32676;52.630;4.896;2023-12-04T08:13:13;100079.59;;;2.10;80.25
46942;BME280;32676;52.630;4.896;2023-12-04T08:15:40;100095.13;;;2.12;80.15
46942;BME280;32676;52.630;4.896;2023-12-04T08:18:07;100123.56;;;2.18;79.98
46942;BME280;32676;52.630;4.896;2023-12-04T08:20:33;100162.34;;;2.29;79.77
46942;BME280;32676;52.630;4.896;2023-12-04T08:23:01;100182.16;;;2.38;79.54
46942;BME280;32676;52.630;4.896;2023-12-04T08:25:28;100180.50;;;2.29;79.44
46942;BME280;32676;52.630;4.896;2023-12-04T08:27:55;100208.91;;;2.43;79.16
46942;BME280;32676;52.630;4.896;2023-12-04T08:30:21;100200.28;;;2.42;78.76
46942;BME280;32676;52.630;4.896;2023-12-04T08:32:47;100220.97;;;2.47;78.40
46942;BME280;32676;52.630;4.896;2023-12-04T08:35:14;100229.59;;;2.49;78.34
46942;BME280;32676;52.630;4.896;2023-12-04T08:37:41;100234.75;;;2.50;77.98
46942;BME280;32676;52.630;4.896;2023-12-04T08:40:09;100243.38;;;2.53;77.94
46942;BME280;32676;52.630;4.896;2023-12-04T08:42:37;100251.16;;;2.54;78.17
46942;BME280;32676;52.630;4.896;2023-12-04T08:45:05;100236.53;;;2.45;77.75
46942;BME280;32676;52.630;4.896;2023-12-04T08:47:32;100252.00;;;2.56;77.72
46942;BME280;32676;52.630;4.896;2023-12-04T08:49:59;100264.09;;;2.57;77.62
46942;BME280;32676;52.630;4.896;2023-12-04T08:52:26;100268.41;;;2.58;77.33
46942;BME280;32676;52.630;4.896;2023-12-04T08:54:52;100292.56;;;2.63;77.50
46942;BME280;32676;52.630;4.896;2023-12-04T08:57:21;100292.66;;;2.54;77.25
46942;BME280;32676;52.630;4.896;2023-12-04T08:59:48;100333.13;;;2.74;77.15
46942;BME280;32676;52.630;4.896;2023-12-04T09:02:15;100349.53;;;2.79;76.98
46942;BME280;32676;52.630;4.896;2023-12-04T09:04:41;100355.56;;;2.78;76.76
46942;BME280;32676;52.630;4.896;2023-12-04T09:07:08;100375.41;;;2.85;76.62
46942;BME280;32676;52.630;4.896;2023-12-04T09:09:35;100401.34;;;2.91;76.36
46942;BME280;32676;52.630;4.896;2023-12-04T09:12:01;100411.66;;;2.94;76.43
46942;BME280;32676;52.630;4.896;2023-12-04T09:14:29;100413.47;;;2.86;76.44
46942;BME280;32676;52.630;4.896;2023-12-04T09:16:55;100396.25;;;2.74;76.10
46942;BME280;32676;52.630;4.896;2023-12-04T09:19:22;100463.47;;;3.06;75.96
46942;BME280;32676;52.630;4.896;2023-12-04T09:21:48;100464.38;;;3.04;75.79
46942;BME280;32676;52.630;4.896;2023-12-04T09:24:15;100487.69;;;3.08;75.62
46942;BME280;32676;52.630;4.896;2023-12-04T09:26:41;100504.94;;;3.16;75.31
46942;BME280;32676;52.630;4.896;2023-12-04T09:29:10;100517.03;;;3.20;75.20
46942;BME280;32676;52.630;4.896;2023-12-04T09:31:39;100532.59;;;3.23;74.99
46942;BME280;32676;52.630;4.896;2023-12-04T09:34:05;100536.06;;;3.22;74.66
46942;BME280;32676;52.630;4.896;2023-12-04T09:36:33;100526.56;;;3.22;74.51
46942;BME280;32676;52.630;4.896;2023-12-04T09:38:59;100497.28;;;3.00;74.21
46942;BME280;32676;52.630;4.896;2023-12-04T09:41:29;100549.00;;;3.26;74.06
46942;BME280;32676;52.630;4.896;2023-12-04T09:43:57;100555.94;;;3.28;73.85
46942;BME280;32676;52.630;4.896;2023-12-04T09:46:23;100552.47;;;3.25;73.52
46942;BME280;32676;52.630;4.896;2023-12-04T09:48:52;100556.81;;;3.28;73.37
46942;BME280;32676;52.630;4.896;2023-12-04T09:51:20;100549.00;;;3.26;72.86
46942;BME280;32676;52.630;4.896;2023-12-04T09:53:47;100544.72;;;3.24;72.87
46942;BME280;32676;52.630;4.896;2023-12-04T09:56:15;100555.97;;;3.23;72.78
46942;BME280;32676;52.630;4.896;2023-12-04T09:58:43;100548.19;;;3.23;72.57
46942;BME280;32676;52.630;4.896;2023-12-04T10:01:11;100562.84;;;3.27;72.50
46942;BME280;32676;52.630;4.896;2023-12-04T10:03:38;100565.44;;;3.27;72.38
46942;BME280;32676;52.630;4.896;2023-12-04T10:06:08;100577.53;;;3.34;72.45
46942;BME280;32676;52.630;4.896;2023-12-04T10:08:34;100593.09;;;3.37;72.46
46942;BME280;32676;52.630;4.896;2023-12-04T10:11:01;100594.84;;;3.35;72.41
46942;BME280;32676;52.630;4.896;2023-12-04T10:13:27;100595.69;;;3.37;72.37
46942;BME280;32676;52.630;4.896;2023-12-04T10:15:54;100598.28;;;3.40;72.34
46942;BME280;32676;52.630;4.896;2023-12-04T10:18:27;100605.16;;;3.43;72.20
46942;BME280;32676;52.630;4.896;2023-12-04T10:20:56;100625.94;;;3.48;71.77
46942;BME280;32676;52.630;4.896;2023-12-04T10:23:37;100615.56;;;3.38;71.10
46942;BME280;32676;52.630;4.896;2023-12-04T10:26:04;100627.69;;;3.41;71.09
46942;BME280;32676;52.630;4.896;2023-12-04T10:28:30;100638.03;;;3.45;70.34
46942;BME280;32676;52.630;4.896;2023-12-04T10:30:56;100650.13;;;3.56;70.32
46942;BME280;32676;52.630;4.896;2023-12-04T10:33:25;100653.59;;;3.52;70.23
46942;BME280;32676;52.630;4.896;2023-12-04T10:35:52;100681.28;;;3.59;70.34
46942;BME280;32676;52.630;4.896;2023-12-04T10:38:20;100687.31;;;3.62;70.12
46942;BME280;32676;52.630;4.896;2023-12-04T10:40:49;100696.81;;;3.62;69.92
46942;BME280;32676;52.630;4.896;2023-12-04T10:43:16;100702.00;;;3.65;70.03
46942;BME280;32676;52.630;4.896;2023-12-04T10:45:44;100707.19;;;3.68;70.10
46942;BME280;32676;52.630;4.896;2023-12-04T10:48:12;100712.41;;;3.68;70.07
46942;BME280;32676;52.630;4.896;2023-12-04T10:50:40;100696.81;;;3.63;70.08
46942;BME280;32676;52.630;4.896;2023-12-04T10:53:08;100689.97;;;3.55;70.35
46942;BME280;32676;52.630;4.896;2023-12-04T10:55:35;100708.06;;;3.67;70.16
46942;BME280;32676;52.630;4.896;2023-12-04T10:58:05;100715.00;;;3.67;70.27
46942;BME280;32676;52.630;4.896;2023-12-04T11:00:34;100726.25;;;3.70;70.02
46942;BME280;32676;52.630;4.896;2023-12-04T11:03:05;100731.44;;;3.70;70.01
46942;BME280;32676;52.630;4.896;2023-12-04T11:05:36;100724.50;;;3.72;69.80
46942;BME280;32676;52.630;4.896;2023-12-04T11:08:05;100715.84;;;3.70;69.69
46942;BME280;32676;52.630;4.896;2023-12-04T11:10:33;100717.59;;;3.68;69.55
46942;BME280;32676;52.630;4.896;2023-12-04T11:13:06;100709.81;;;3.67;69.25
46942;BME280;32676;52.630;4.896;2023-12-04T11:15:39;100703.75;;;3.66;69.04
46942;BME280;32676;52.630;4.896;2023-12-04T11:18:07;100720.19;;;3.71;69.17
46942;BME280;32676;52.630;4.896;2023-12-04T11:20:40;100707.22;;;3.65;69.28
46942;BME280;32676;52.630;4.896;2023-12-04T11:23:08;100695.13;;;3.61;68.99
46942;BME280;32676;52.630;4.896;2023-12-04T11:25:35;100722.78;;;3.71;69.11
46942;BME280;32676;52.630;4.896;2023-12-04T11:28:03;100735.75;;;3.74;69.37
46942;BME280;32676;52.630;4.896;2023-12-04T11:30:30;100712.41;;;3.62;69.37
46942;BME280;32676;52.630;4.896;2023-12-04T11:33:00;100711.50;;;3.69;69.27
46942;BME280;32676;52.630;4.896;2023-12-04T11:35:26;100688.22;;;3.54;69.35
46942;BME280;32676;52.630;4.896;2023-12-04T11:37:53;100745.28;;;3.75;69.19
46942;BME280;32676;52.630;4.896;2023-12-04T11:40:19;100745.28;;;3.75;68.80
46942;BME280;32676;52.630;4.896;2023-12-04T11:42:47;100753.03;;;3.80;68.69
46942;BME280;32676;52.630;4.896;2023-12-04T11:45:19;100759.13;;;3.74;68.51
46942;BME280;32676;52.630;4.896;2023-12-04T11:47:50;100798.91;;;3.92;68.27
46942;BME280;32676;52.630;4.896;2023-12-04T11:50:18;100805.81;;;3.93;68.01
46942;BME280;32676;52.630;4.896;2023-12-04T11:52:45;100823.13;;;3.97;67.97
46942;BME280;32676;52.630;4.896;2023-12-04T11:55:15;100842.16;;;4.02;67.87
46942;BME280;32676;52.630;4.896;2023-12-04T11:57:42;100849.09;;;4.03;67.54
46942;BME280;32676;52.630;4.896;2023-12-04T12:00:13;100854.28;;;4.06;67.65
46942;BME280;32676;52.630;4.896;2023-12-04T12:02:47;100872.44;;;4.09;67.44
46942;BME280;32676;52.630;4.896;2023-12-04T12:05:15;100882.84;;;4.12;67.23
46942;BME280;32676;52.630;4.896;2023-12-04T12:07:42;100888.91;;;4.14;67.02
46942;BME280;32676;52.630;4.896;2023-12-04T12:10:09;100913.16;;;4.19;67.06
46942;BME280;32676;52.630;4.896;2023-12-04T12:12:36;100911.44;;;4.18;66.98
46942;BME280;32676;52.630;4.896;2023-12-04T12:15:04;100915.75;;;4.16;67.10
46942;BME280;32676;52.630;4.896;2023-12-04T12:17:30;100929.59;;;4.23;66.98
46942;BME280;32676;52.630;4.896;2023-12-04T12:19:58;100927.00;;;4.20;67.08
46942;BME280;32676;52.630;4.896;2023-12-04T12:22:24;100936.53;;;4.26;67.11
46942;BME280;32676;52.630;4.896;2023-12-04T12:24:51;100943.47;;;4.27;67.07
46942;BME280;32676;52.630;4.896;2023-12-04T12:27:18;100958.19;;;4.31;66.85
46942;BME280;32676;52.630;4.896;2023-12-04T12:29:44;100946.91;;;4.26;66.71
46942;BME280;32676;52.630;4.896;2023-12-04T12:32:11;100967.72;;;4.33;66.71
46942;BME280;32676;52.630;4.896;2023-12-04T12:34:37;100922.75;;;4.05;66.97
46942;BME280;32676;52.630;4.896;2023-12-04T12:37:05;100950.41;;;4.21;67.01
46942;BME280;32676;52.630;4.896;2023-12-04T12:39:33;100973.78;;;4.34;67.16
46942;BME280;32676;52.630;4.896;2023-12-04T12:42:00;100944.38;;;4.19;67.17
46942;BME280;32676;52.630;4.896;2023-12-04T12:44:27;100947.81;;;4.28;67.28
46942;BME280;32676;52.630;4.896;2023-12-04T12:46:53;100923.56;;;4.22;67.26
46942;BME280;32676;52.630;4.896;2023-12-04T12:49:20;100925.31;;;4.20;67.31
46942;BME280;32676;52.630;4.896;2023-12-04T12:51:46;100895.84;;;4.12;67.56
46942;BME280;32676;52.630;4.896;2023-12-04T12:54:14;100918.34;;;4.19;67.58
46942;BME280;32676;52.630;4.896;2023-12-04T12:56:40;100912.31;;;4.13;67.43
46942;BME280;32676;52.630;4.896;2023-12-04T12:59:07;100944.31;;;4.29;67.40
46942;BME280;32676;52.630;4.896;2023-12-04T13:01:33;100940.00;;;4.28;67.61
46942;BME280;32676;52.630;4.896;2023-12-04T13:04:00;100967.72;;;4.33;67.91